Aérodrome :
LOGIN :

S'inscrire | Disclaimer

   EN    FR    IT 

 










Légende :    VFR   VFR Marginal   IFR   IFR Intensif   IFR Très Intensif
Visi : 
Plafond : 
>= 8 km
>= 3000ft
5 à 8 km
1000 à 3000 ft
1500m à 5 km
500 à 1000 ft
800 à 1500m
200 à 500 ft
< 800m
< 200 ft
Symboles :   Orages  Brouillard  Fortes neiges  Fortes précipitations  Vent > 20 kt
SIGMETs :   Divers  Orages  Givrage  Turbulence  Onde Orograph.  Cendres Volcan.







- Altitude de l'aérodrome : 327 ft
- Code IATA : BHX
- Voir les cartes d'approche


EGBB - Birmingham

DERNIER METAR :
  • 192150Z 21004KT CAVOK 12/09 Q1020

METARs EXPIRÉS :
  • 192120Z 22004KT CAVOK 12/09 Q1020
  • 192050Z 20004KT CAVOK 12/09 Q1020
  • 192020Z 19004KT CAVOK 12/09 Q1020
  • 191950Z 18004KT 9999 FEW048 12/08 Q1020
  • 191920Z 19004KT CAVOK 12/09 Q1020

TAF TAF EGBB
Valide du 19 à 18h jusqu'au 20 à 18h UTC


191657Z 1918/2018 24006KT 9999 FEW040
BECMG 1918/1921 17010KT
PROB30
TEMPO 2000/2005 8000
PROB30
TEMPO 2005/2011 BKN009
ATIS : +44 121 780 0910
Pas de NOTAMs connus pour ce terrain.



MET'MAP, la Météo Aéronautique d'un coup d'oeil ! - Copyright ORBIFLY Décembre 2007 - Disclaimer

ORBIFLY MET'MAP TEAM :

Programmation & Développement : Alexandra Zaïnal
Conception & Développement : Baudouin d'Aumeries
Co-Programmation & Développement : Marc-Olivier Méhu
Soutien technique & logistique : Manuel Goepfert

Contact : metmap@orbifly.com




SOURCES & CREDITS :

   NOAA